Time;durP1;ratioP1;P1;durP2;ratioP2;P2;SDS_P1;SDS_P2;PMS_P1;PMS_P2;Temp;Humidity;BMP_temperature;BMP_pressure;BME280_temperature;BME280_humidity;BME280_pressure;Samples;Min_cycle;Max_cycle;Signal;HPM_P1;HPM_P2
2021/07/20 00:02:08;;;;;;;6.50;5.40;;;16.30;99.90;;;;;;5121115;28;20692;-83
2021/07/20 00:04:33;;;;;;;9.53;5.60;;;16.30;99.90;;;;;;5122551;28;20612;-83
2021/07/20 00:06:59;;;;;;;6.50;5.53;;;16.30;99.90;;;;;;5121327;28;20202;-83
2021/07/20 00:09:25;;;;;;;8.03;5.40;;;16.30;99.90;;;;;;5121461;28;20195;-83
2021/07/20 00:11:50;;;;;;;7.10;5.93;;;16.30;99.90;;;;;;5132755;28;20215;-83
2021/07/20 00:14:16;;;;;;;11.33;6.23;;;16.20;99.90;;;;;;5129989;28;20225;-84
2021/07/20 00:16:42;;;;;;;7.77;6.13;;;16.20;99.90;;;;;;5129039;28;20270;-83
2021/07/20 00:19:07;;;;;;;8.03;5.83;;;16.20;99.90;;;;;;5129026;28;20199;-84
2021/07/20 00:21:33;;;;;;;10.40;5.93;;;16.10;99.90;;;;;;5129991;28;20191;-84
2021/07/20 00:23:59;;;;;;;9.67;5.87;;;16.10;99.90;;;;;;5129501;28;20545;-84
2021/07/20 00:26:24;;;;;;;9.30;6.80;;;16.10;99.90;;;;;;5129393;28;20181;-84
2021/07/20 00:28:50;;;;;;;9.60;6.80;;;16.00;99.90;;;;;;5129997;28;20179;-84
2021/07/20 00:31:16;;;;;;;10.57;6.87;;;16.00;99.90;;;;;;5129787;28;20226;-84
2021/07/20 00:33:41;;;;;;;9.73;7.13;;;16.00;99.90;;;;;;5131568;28;20172;-84
2021/07/20 00:36:07;;;;;;;10.03;7.23;;;16.00;99.90;;;;;;5138947;28;20167;-83
2021/07/20 00:38:33;;;;;;;7.37;6.40;;;16.00;99.90;;;;;;5139808;28;20197;-83
2021/07/20 00:40:59;;;;;;;8.33;6.77;;;15.90;99.90;;;;;;5132760;28;20270;-84
2021/07/20 00:43:25;;;;;;;8.47;6.73;;;15.90;99.90;;;;;;5129096;28;20176;-84
2021/07/20 00:45:50;;;;;;;8.73;7.00;;;15.90;99.90;;;;;;5127013;28;20234;-84
2021/07/20 00:48:16;;;;;;;11.67;7.43;;;15.80;99.90;;;;;;5127032;28;20179;-84
2021/07/20 00:50:46;;;;;;;9.97;7.00;;;15.90;99.90;;;;;;5127516;28;20235;-84
2021/07/20 00:53:13;;;;;;;10.47;7.53;;;15.80;99.90;;;;;;5127772;28;20622;-83
2021/07/20 00:55:40;;;;;;;8.20;6.40;;;15.80;99.90;;;;;;5128709;28;20185;-84
2021/07/20 00:58:07;;;;;;;11.60;6.57;;;15.80;99.90;;;;;;5127074;28;20195;-84
2021/07/20 01:00:34;;;;;;;11.30;7.17;;;15.70;99.90;;;;;;5126130;28;20180;-83
2021/07/20 01:03:00;;;;;;;11.93;6.77;;;15.70;99.90;;;;;;5128222;28;20195;-83
2021/07/20 01:05:27;;;;;;;9.03;7.03;;;15.70;99.90;;;;;;5126915;28;20681;-84
2021/07/20 01:07:53;;;;;;;10.13;6.87;;;15.60;99.90;;;;;;5126624;28;20176;-84
2021/07/20 01:10:20;;;;;;;9.53;7.23;;;15.60;99.90;;;;;;5126881;28;20182;-84
2021/07/20 01:12:46;;;;;;;9.67;7.73;;;15.60;99.90;;;;;;5126781;28;20202;-83
2021/07/20 01:15:13;;;;;;;12.90;7.23;;;15.60;99.90;;;;;;5127092;28;20186;-84
2021/07/20 01:17:41;;;;;;;10.27;7.63;;;15.50;99.90;;;;;;5128383;28;20201;-83
2021/07/20 01:20:18;;;;;;;10.87;8.37;;;15.50;99.90;;;;;;5125912;28;20231;-83
2021/07/20 01:23:17;;;;;;;13.00;8.33;;;15.50;99.90;;;;;;5128492;27;20195;-84
2021/07/20 01:25:44;;;;;;;10.90;7.70;;;15.40;99.90;;;;;;5126617;28;20588;-84
2021/07/20 01:28:17;;;;;;;12.33;8.40;;;15.40;99.90;;;;;;5128467;28;20176;-84
2021/07/20 01:30:46;;;;;;;11.00;8.83;;;15.40;99.90;;;;;;5128037;28;20168;-84
2021/07/20 01:33:12;;;;;;;12.87;8.20;;;15.40;99.90;;;;;;5129425;28;20168;-84
2021/07/20 01:35:40;;;;;;;12.80;9.07;;;15.40;99.90;;;;;;5126707;28;20183;-84
2021/07/20 01:38:08;;;;;;;12.63;8.60;;;15.40;99.90;;;;;;5127636;28;20191;-84
2021/07/20 01:40:37;;;;;;;16.63;8.23;;;15.30;99.90;;;;;;5128459;28;20274;-84
2021/07/20 01:43:05;;;;;;;13.13;9.00;;;15.30;99.90;;;;;;5127140;28;20175;-84
2021/07/20 01:45:32;;;;;;;11.70;7.63;;;15.30;99.90;;;;;;5128715;28;20249;-84
2021/07/20 01:47:59;;;;;;;12.57;8.73;;;15.20;99.90;;;;;;5127404;28;20175;-84
2021/07/20 01:50:26;;;;;;;11.33;8.50;;;15.20;99.90;;;;;;5127743;28;20183;-84
2021/07/20 01:52:54;;;;;;;17.03;8.90;;;15.20;99.90;;;;;;5127991;28;20266;-84
2021/07/20 01:55:24;;;;;;;14.20;8.77;;;15.20;99.90;;;;;;5128083;28;20582;-84
2021/07/20 01:57:51;;;;;;;10.43;8.30;;;15.20;99.90;;;;;;5129318;28;20168;-84
2021/07/20 02:00:18;;;;;;;11.47;9.37;;;15.20;99.90;;;;;;5128711;28;20274;-83
2021/07/20 02:03:16;;;;;;;12.23;8.73;;;15.20;99.90;;;;;;5127750;28;20290;-84
2021/07/20 02:08:43;;;;;;;15.53;9.77;;;15.10;99.90;;;;;;5135863;28;20170;-83
2021/07/20 02:11:16;;;;;;;14.53;10.20;;;15.10;99.90;;;;;;5133995;28;20277;-83
2021/07/20 02:13:46;;;;;;;10.97;8.97;;;15.10;99.90;;;;;;5136154;28;20190;-83
2021/07/20 02:16:16;;;;;;;13.20;9.73;;;15.20;99.90;;;;;;5123868;28;20156;-83
2021/07/20 02:18:46;;;;;;;12.60;9.60;;;15.20;99.90;;;;;;5127451;28;20507;-83
2021/07/20 02:21:14;;;;;;;13.30;9.33;;;15.20;99.90;;;;;;5137946;28;20175;-82
2021/07/20 02:23:40;;;;;;;13.27;8.93;;;15.20;99.90;;;;;;5140642;28;20167;-82
2021/07/20 02:26:07;;;;;;;13.07;9.97;;;15.30;99.90;;;;;;5125864;28;20672;-83
2021/07/20 02:28:35;;;;;;;11.87;8.80;;;15.30;99.90;;;;;;5131608;28;20192;-84
2021/07/20 02:31:03;;;;;;;12.63;9.37;;;15.30;99.90;;;;;;5127184;28;20192;-84
2021/07/20 02:33:29;;;;;;;11.27;8.77;;;15.30;99.90;;;;;;5127139;28;20523;-84
2021/07/20 02:35:55;;;;;;;13.77;10.33;;;15.30;99.90;;;;;;5127205;28;20210;-84
2021/07/20 02:38:21;;;;;;;12.67;9.23;;;15.30;99.90;;;;;;5126040;28;20175;-84
2021/07/20 02:40:49;;;;;;;13.67;10.20;;;15.30;99.90;;;;;;5126222;28;20180;-84
2021/07/20 02:43:17;;;;;;;12.87;9.10;;;15.30;99.90;;;;;;5125828;28;20224;-84
2021/07/20 02:45:44;;;;;;;15.50;10.00;;;15.30;99.90;;;;;;5125017;28;20249;-84
2021/07/20 02:48:10;;;;;;;11.80;8.97;;;15.30;99.90;;;;;;5125576;28;20179;-84
2021/07/20 02:50:36;;;;;;;13.50;9.53;;;15.20;99.90;;;;;;5124795;28;20235;-84
2021/07/20 02:53:04;;;;;;;11.03;9.33;;;15.20;99.90;;;;;;5125984;28;20262;-84
2021/07/20 02:55:31;;;;;;;15.33;9.00;;;15.20;99.90;;;;;;5124720;28;20225;-84
2021/07/20 02:57:59;;;;;;;12.27;8.80;;;15.20;99.90;;;;;;5126357;28;20175;-84
2021/07/20 03:00:26;;;;;;;11.73;8.67;;;15.20;99.90;;;;;;5126756;28;20178;-84
2021/07/20 03:02:53;;;;;;;12.10;9.37;;;15.10;99.90;;;;;;5124392;28;20249;-84
2021/07/20 03:05:18;;;;;;;18.37;9.33;;;15.10;99.90;;;;;;5124947;28;20229;-84
2021/07/20 03:07:54;;;;;;;12.87;10.17;;;15.10;99.90;;;;;;5124333;28;20175;-84
2021/07/20 03:10:23;;;;;;;15.20;9.07;;;15.10;99.90;;;;;;5124846;28;20517;-84
2021/07/20 03:12:51;;;;;;;12.50;9.50;;;15.00;99.90;;;;;;5126023;28;20179;-84
2021/07/20 03:15:17;;;;;;;13.97;9.07;;;15.00;99.90;;;;;;5124960;28;20175;-84
2021/07/20 03:17:44;;;;;;;11.90;8.70;;;15.00;99.90;;;;;;5125788;28;20175;-84
2021/07/20 03:20:12;;;;;;;13.77;9.20;;;14.90;99.90;;;;;;5125157;28;20207;-84
2021/07/20 03:22:40;;;;;;;14.40;9.40;;;14.90;99.90;;;;;;5125061;28;20199;-84
2021/07/20 03:25:06;;;;;;;14.70;10.33;;;14.90;99.90;;;;;;5126865;28;20187;-84
2021/07/20 03:27:35;;;;;;;14.40;10.80;;;14.90;99.90;;;;;;5124867;28;20172;-84
2021/07/20 03:30:02;;;;;;;11.80;9.40;;;14.90;99.90;;;;;;5125534;28;20169;-84
2021/07/20 03:32:29;;;;;;;15.43;10.00;;;14.90;99.90;;;;;;5124993;28;20222;-84
2021/07/20 03:34:56;;;;;;;13.70;9.87;;;14.90;99.90;;;;;;5126959;28;20165;-84
2021/07/20 03:37:23;;;;;;;15.57;10.33;;;14.90;99.90;;;;;;5127125;28;20171;-84
2021/07/20 03:39:52;;;;;;;13.77;9.70;;;14.90;99.90;;;;;;5126900;28;20164;-84
2021/07/20 03:42:19;;;;;;;14.43;9.30;;;14.90;99.90;;;;;;5126069;28;20199;-84
2021/07/20 03:44:45;;;;;;;12.47;9.50;;;14.80;99.90;;;;;;5125381;28;20205;-84
2021/07/20 03:47:14;;;;;;;11.20;9.37;;;14.80;99.90;;;;;;5127262;28;20270;-84
2021/07/20 03:49:40;;;;;;;13.17;8.97;;;14.80;99.90;;;;;;5130350;28;20176;-84
2021/07/20 03:52:07;;;;;;;12.60;9.90;;;14.80;99.90;;;;;;5128853;28;20195;-84
2021/07/20 03:54:34;;;;;;;15.17;10.23;;;14.70;99.90;;;;;;5129395;28;20176;-84
2021/07/20 03:57:01;;;;;;;15.37;10.10;;;14.80;99.90;;;;;;5129824;28;20182;-84
2021/07/20 03:59:29;;;;;;;12.03;9.40;;;14.70;99.90;;;;;;5129508;28;20176;-84
2021/07/20 04:01:58;;;;;;;15.20;9.63;;;14.70;99.90;;;;;;5130915;27;20248;-84
2021/07/20 04:04:28;;;;;;;13.63;9.53;;;14.70;99.90;;;;;;5130234;27;20179;-85
2021/07/20 04:06:57;;;;;;;12.23;9.13;;;14.70;99.90;;;;;;5128021;28;20179;-85
2021/07/20 04:09:23;;;;;;;13.53;9.60;;;14.70;99.90;;;;;;5126221;28;20171;-85
2021/07/20 04:11:50;;;;;;;11.13;9.20;;;14.70;99.90;;;;;;5129333;28;20196;-85
2021/07/20 04:14:19;;;;;;;15.37;9.80;;;14.60;99.90;;;;;;5131482;28;20172;-84
2021/07/20 04:16:45;;;;;;;12.83;8.87;;;14.60;99.90;;;;;;5131141;28;20188;-85
2021/07/20 04:19:16;;;;;;;15.97;9.73;;;14.60;99.90;;;;;;5128204;28;20624;-84
2021/07/20 04:21:42;;;;;;;14.17;9.97;;;14.60;99.90;;;;;;5126868;28;20192;-86
2021/07/20 04:24:12;;;;;;;13.73;9.67;;;14.70;99.90;;;;;;5126186;28;20175;-84
2021/07/20 04:26:41;;;;;;;14.07;9.43;;;14.70;99.90;;;;;;5128427;28;20566;-85
2021/07/20 04:29:07;;;;;;;17.57;10.07;;;14.70;99.90;;;;;;5126701;28;20270;-85
2021/07/20 04:31:33;;;;;;;12.40;9.33;;;14.80;99.90;;;;;;5126344;28;20206;-85
2021/07/20 04:34:00;;;;;;;14.63;10.17;;;14.80;99.90;;;;;;5126096;28;20578;-84
2021/07/20 04:36:26;;;;;;;12.40;9.33;;;14.80;99.90;;;;;;5125547;28;20175;-84
2021/07/20 04:38:52;;;;;;;11.63;9.23;;;14.90;99.90;;;;;;5125952;28;20186;-84
2021/07/20 04:41:20;;;;;;;14.80;8.60;;;14.90;99.90;;;;;;5126157;28;20192;-84
2021/07/20 04:43:46;;;;;;;13.03;9.13;;;15.00;99.90;;;;;;5124788;28;20183;-85
2021/07/20 04:46:14;;;;;;;16.57;10.13;;;15.00;99.90;;;;;;5123879;28;20191;-84
2021/07/20 04:48:40;;;;;;;12.30;9.27;;;15.10;99.90;;;;;;5121703;28;20630;-85
2021/07/20 04:51:07;;;;;;;13.07;9.53;;;15.20;99.90;;;;;;5120775;28;20263;-84
2021/07/20 04:53:39;;;;;;;16.80;9.43;;;15.20;99.90;;;;;;5131575;28;20629;-84
2021/07/20 04:56:05;;;;;;;14.77;9.37;;;15.20;99.90;;;;;;5123638;28;20267;-84
2021/07/20 04:58:32;;;;;;;11.37;8.63;;;15.20;99.90;;;;;;5123885;28;20255;-84
2021/07/20 05:00:58;;;;;;;13.43;8.83;;;15.30;99.90;;;;;;5120318;28;20180;-84
2021/07/20 05:03:25;;;;;;;13.67;9.30;;;15.30;99.90;;;;;;5118245;28;20175;-84
2021/07/20 05:05:57;;;;;;;14.97;9.93;;;15.40;99.90;;;;;;5126155;28;20271;-83
2021/07/20 05:08:23;;;;;;;12.37;9.10;;;15.40;99.90;;;;;;5140203;28;20180;-84
2021/07/20 05:10:51;;;;;;;12.87;9.20;;;15.50;99.90;;;;;;5139135;28;20254;-83
2021/07/20 05:13:19;;;;;;;11.17;8.50;;;15.50;99.90;;;;;;5128745;28;20176;-84
2021/07/20 05:15:56;;;;;;;13.53;9.60;;;15.60;99.90;;;;;;5127153;28;20191;-84
2021/07/20 05:18:22;;;;;;;12.80;8.93;;;15.60;99.90;;;;;;5128572;28;20575;-84
2021/07/20 05:20:50;;;;;;;16.70;9.30;;;15.70;99.90;;;;;;5126988;28;20179;-84
2021/07/20 05:23:18;;;;;;;14.27;9.17;;;15.70;99.90;;;;;;5126958;28;20202;-84
2021/07/20 05:25:47;;;;;;;13.70;9.37;;;15.60;99.90;;;;;;5124805;28;20195;-84
2021/07/20 05:28:14;;;;;;;11.03;8.73;;;15.60;99.90;;;;;;5126086;28;20167;-84
2021/07/20 05:30:41;;;;;;;16.70;9.53;;;15.60;99.90;;;;;;5128547;28;20167;-84
2021/07/20 05:33:08;;;;;;;12.47;8.93;;;15.70;99.90;;;;;;5126305;28;20179;-83
2021/07/20 05:35:34;;;;;;;11.80;8.50;;;15.90;99.90;;;;;;5124118;28;20176;-84
2021/07/20 05:38:00;;;;;;;12.77;8.37;;;15.80;99.90;;;;;;5125736;28;20185;-84
2021/07/20 05:40:27;;;;;;;14.53;8.90;;;15.90;99.90;;;;;;5126859;28;20203;-84
2021/07/20 05:42:55;;;;;;;15.53;9.07;;;16.00;99.90;;;;;;5126234;28;20548;-83
2021/07/20 05:45:22;;;;;;;12.17;8.80;;;16.00;99.90;;;;;;5126652;28;20191;-84
2021/07/20 05:47:49;;;;;;;11.10;8.80;;;16.10;99.90;;;;;;5126914;28;20532;-84
2021/07/20 05:50:19;;;;;;;13.27;9.13;;;16.20;99.90;;;;;;5127523;28;20578;-85
2021/07/20 05:52:47;;;;;;;14.50;8.73;;;16.30;99.90;;;;;;5126398;28;20241;-84
2021/07/20 05:55:15;;;;;;;12.47;9.10;;;16.40;99.90;;;;;;5127034;28;20176;-85
2021/07/20 05:57:45;;;;;;;13.13;10.27;;;16.50;99.90;;;;;;5126420;28;20187;-85
2021/07/20 06:00:12;;;;;;;13.40;9.43;;;16.60;99.90;;;;;;5125841;28;20168;-85
2021/07/20 06:02:39;;;;;;;17.57;9.93;;;16.60;99.90;;;;;;5125506;28;20270;-84
2021/07/20 06:05:13;;;;;;;14.80;9.93;;;16.60;99.90;;;;;;5125282;28;20215;-85
2021/07/20 06:07:39;;;;;;;12.80;10.13;;;16.60;99.90;;;;;;5127079;28;20182;-84
2021/07/20 06:10:06;;;;;;;16.70;9.77;;;16.70;99.90;;;;;;5127642;28;20172;-84
2021/07/20 06:12:32;;;;;;;16.17;10.43;;;16.60;99.90;;;;;;5130142;28;20606;-83
2021/07/20 06:14:59;;;;;;;13.57;10.23;;;16.60;99.90;;;;;;5126136;28;20183;-84
2021/07/20 06:17:26;;;;;;;13.27;10.90;;;16.60;99.90;;;;;;5126979;28;20575;-84
2021/07/20 06:19:52;;;;;;;17.57;10.60;;;16.60;99.90;;;;;;5126174;28;20211;-84
2021/07/20 06:22:23;;;;;;;14.03;9.87;;;16.60;99.90;;;;;;5127349;28;20199;-84
2021/07/20 06:24:50;;;;;;;12.83;9.83;;;16.60;99.90;;;;;;5127701;28;20202;-84
2021/07/20 06:27:18;;;;;;;16.30;10.30;;;16.60;99.90;;;;;;5127874;28;20272;-84
2021/07/20 06:29:45;;;;;;;13.40;10.63;;;16.70;99.90;;;;;;5126659;28;20179;-84
2021/07/20 06:32:13;;;;;;;12.07;10.37;;;16.60;99.90;;;;;;5125904;28;20252;-84
2021/07/20 06:34:40;;;;;;;15.40;10.67;;;16.60;99.90;;;;;;5126909;28;20183;-84
2021/07/20 06:37:07;;;;;;;16.20;10.70;;;16.60;99.90;;;;;;5126707;28;20262;-84
2021/07/20 06:39:33;;;;;;;13.70;10.57;;;16.70;99.90;;;;;;5126764;28;20175;-84
2021/07/20 06:42:00;;;;;;;16.40;10.53;;;16.70;99.90;;;;;;5127156;28;20729;-84
2021/07/20 06:44:28;;;;;;;16.37;11.13;;;16.80;99.90;;;;;;5129070;28;20175;-84
2021/07/20 06:46:54;;;;;;;11.67;10.37;;;16.90;99.90;;;;;;5128423;28;20243;-84
2021/07/20 06:49:21;;;;;;;15.57;10.90;;;17.00;99.90;;;;;;5129554;28;20199;-84
2021/07/20 06:51:47;;;;;;;16.37;11.47;;;17.10;99.90;;;;;;5135509;28;20191;-83
2021/07/20 06:54:14;;;;;;;11.87;9.60;;;17.30;99.90;;;;;;5133208;28;20173;-83
2021/07/20 06:56:49;;;;;;;14.70;9.80;;;17.40;99.90;;;;;;5132248;28;20174;-83
2021/07/20 06:59:16;;;;;;;14.40;10.70;;;17.60;99.90;;;;;;5120245;28;20173;-83
2021/07/20 07:01:43;;;;;;;14.47;10.17;;;17.70;99.90;;;;;;5129934;28;20191;-84
2021/07/20 07:04:45;;;;;;;13.77;9.80;;;17.60;99.90;;;;;;5125393;28;20202;-84
2021/07/20 07:07:12;;;;;;;16.40;11.47;;;17.60;99.90;;;;;;5125335;28;20185;-84
2021/07/20 07:09:39;;;;;;;13.20;10.23;;;17.70;99.90;;;;;;5126068;28;20179;-84
2021/07/20 07:12:06;;;;;;;17.27;10.67;;;17.80;99.90;;;;;;5125179;28;20289;-84
2021/07/20 07:14:32;;;;;;;15.40;10.80;;;17.80;99.90;;;;;;5125095;28;20173;-83
2021/07/20 07:17:00;;;;;;;12.77;9.93;;;17.80;99.90;;;;;;5126464;28;20172;-84
2021/07/20 07:19:26;;;;;;;13.00;9.77;;;17.80;99.90;;;;;;5135887;28;20226;-83
2021/07/20 07:21:52;;;;;;;12.60;10.30;;;17.80;99.90;;;;;;5129370;28;20622;-83
2021/07/20 07:24:20;;;;;;;14.23;9.97;;;17.90;99.90;;;;;;5139706;28;20172;-83
2021/07/20 07:26:48;;;;;;;14.80;10.43;;;18.00;99.90;;;;;;5126690;28;20266;-83
2021/07/20 07:29:17;;;;;;;11.43;9.80;;;18.00;99.90;;;;;;5123665;28;20169;-83
2021/07/20 07:31:47;;;;;;;12.90;10.20;;;18.00;99.90;;;;;;5122667;28;20196;-83
2021/07/20 07:34:14;;;;;;;13.10;10.00;;;18.00;99.90;;;;;;5122451;28;20169;-83
2021/07/20 07:36:42;;;;;;;13.87;10.07;;;17.90;99.90;;;;;;5134821;28;20157;-83
2021/07/20 07:39:10;;;;;;;13.83;9.53;;;18.00;99.90;;;;;;5141799;28;20215;-83
2021/07/20 07:41:39;;;;;;;14.43;9.97;;;18.00;99.90;;;;;;5137381;28;20195;-83
2021/07/20 07:44:06;;;;;;;12.67;9.10;;;18.20;99.90;;;;;;5128820;28;20203;-83
2021/07/20 07:46:35;;;;;;;10.67;8.93;;;18.30;99.90;;;;;;5129782;28;20670;-84
2021/07/20 07:49:01;;;;;;;11.47;8.90;;;18.50;99.90;;;;;;5129272;28;20207;-83
2021/07/20 07:51:27;;;;;;;12.50;8.70;;;18.60;99.90;;;;;;5129568;28;20226;-84
2021/07/20 07:53:58;;;;;;;14.03;9.47;;;18.70;99.90;;;;;;5127722;28;20210;-83
2021/07/20 07:56:28;;;;;;;13.83;9.27;;;18.90;99.90;;;;;;5128722;28;20231;-84
2021/07/20 07:58:56;;;;;;;10.40;8.77;;;19.00;99.90;;;;;;5130247;27;20176;-83
2021/07/20 08:01:24;;;;;;;12.77;9.00;;;19.00;99.90;;;;;;5130187;28;20199;-84
2021/07/20 08:03:50;;;;;;;13.37;8.20;;;19.10;99.90;;;;;;5128907;28;20203;-84
2021/07/20 08:06:21;;;;;;;10.33;8.53;;;19.30;99.90;;;;;;5132436;28;20208;-84
2021/07/20 08:08:52;;;;;;;13.93;8.17;;;19.40;99.90;;;;;;5132305;28;20148;-84
2021/07/20 08:11:19;;;;;;;11.30;8.20;;;19.40;99.90;;;;;;5127037;28;20198;-83
2021/07/20 08:13:45;;;;;;;11.10;8.17;;;19.30;99.90;;;;;;5120769;28;20178;-83
2021/07/20 08:16:13;;;;;;;11.00;7.77;;;19.40;99.90;;;;;;5124367;28;20176;-83
2021/07/20 08:18:40;;;;;;;10.60;8.17;;;19.30;99.90;;;;;;5124232;28;20177;-83
2021/07/20 08:21:07;;;;;;;11.47;8.60;;;19.20;99.90;;;;;;5124602;28;20196;-83
2021/07/20 08:23:35;;;;;;;15.07;10.00;;;19.20;99.90;;;;;;5124792;28;20657;-83
2021/07/20 08:26:28;;;;;;;13.27;9.33;;;19.20;99.90;;;;;;5124055;28;20193;-83
2021/07/20 08:29:16;;;;;;;14.17;9.83;;;19.10;99.90;;;;;;5125710;28;20240;-83
2021/07/20 08:31:48;;;;;;;14.30;10.67;;;19.10;99.90;;;;;;5123976;28;20197;-83
2021/07/20 08:34:16;;;;;;;14.67;10.27;;;19.20;99.90;;;;;;5123870;28;20165;-83
2021/07/20 08:36:44;;;;;;;17.30;9.90;;;19.10;99.90;;;;;;5124387;28;20199;-83
2021/07/20 08:39:12;;;;;;;13.10;11.07;;;19.10;99.90;;;;;;5124250;28;20182;-83
2021/07/20 08:41:44;;;;;;;16.80;10.93;;;19.10;99.90;;;;;;5122795;28;20219;-83
2021/07/20 08:44:26;;;;;;;16.77;11.30;;;19.10;99.90;;;;;;5123118;28;20178;-83
2021/07/20 08:47:15;;;;;;;16.70;10.60;;;19.30;99.90;;;;;;5122447;28;20176;-83
2021/07/20 08:50:07;;;;;;;14.67;12.43;;;19.60;99.90;;;;;;5117720;28;20202;-82
2021/07/20 08:52:41;;;;;;;13.87;9.83;;;19.80;99.90;;;;;;5123030;28;20656;-83
2021/07/20 08:55:15;;;;;;;15.90;10.90;;;19.80;99.90;;;;;;5121973;28;20178;-83
2021/07/20 08:57:53;;;;;;;14.97;10.97;;;19.80;99.90;;;;;;5120992;28;20181;-83
2021/07/20 09:00:22;;;;;;;17.37;11.33;;;20.10;99.90;;;;;;5130271;28;20160;-83
2021/07/20 09:03:01;;;;;;;12.60;10.00;;;20.40;99.90;;;;;;5125072;28;20199;-83
2021/07/20 09:05:41;;;;;;;15.90;10.83;;;20.80;99.90;;;;;;5124548;28;20253;-83
2021/07/20 09:08:33;;;;;;;13.57;10.57;;;21.10;99.90;;;;;;5126649;28;20229;-84
2021/07/20 09:11:21;;;;;;;13.60;9.00;;;21.50;99.90;;;;;;5120969;28;20187;-81
2021/07/20 09:13:57;;;;;;;14.27;9.50;;;21.50;99.90;;;;;;5128796;28;20168;-81
2021/07/20 09:16:45;;;;;;;18.90;11.03;;;21.70;99.90;;;;;;5128174;28;20624;-81
2021/07/20 09:19:33;;;;;;;13.43;9.20;;;21.60;99.90;;;;;;5126116;28;20172;-81
2021/07/20 09:22:14;;;;;;;11.13;8.60;;;21.70;99.90;;;;;;5127415;28;20191;-81
2021/07/20 09:24:49;;;;;;;12.47;7.60;;;21.90;99.90;;;;;;5126052;28;20290;-81
2021/07/20 09:27:22;;;;;;;11.87;7.90;;;22.20;99.90;;;;;;5125906;28;20178;-81
2021/07/20 09:29:52;;;;;;;14.03;8.30;;;22.40;99.90;;;;;;5126446;28;20226;-81
2021/07/20 09:32:39;;;;;;;15.20;7.90;;;22.50;99.90;;;;;;5126183;28;20225;-81
2021/07/20 09:35:12;;;;;;;10.70;8.13;;;22.70;99.90;;;;;;5128070;28;20217;-81
2021/07/20 09:37:55;;;;;;;10.93;8.23;;;22.90;99.90;;;;;;5125906;28;20177;-81
2021/07/20 09:40:37;;;;;;;12.13;9.60;;;22.80;99.90;;;;;;5125876;28;20180;-81
2021/07/20 09:43:13;;;;;;;10.53;7.53;;;22.90;99.90;;;;;;5126445;28;20231;-81
2021/07/20 09:45:45;;;;;;;10.93;8.17;;;23.00;99.90;;;;;;5125864;28;20218;-81
2021/07/20 09:48:41;;;;;;;11.47;8.40;;;23.50;99.90;;;;;;5127647;28;20246;-81
2021/07/20 09:51:25;;;;;;;14.10;9.00;;;23.60;99.90;;;;;;5124800;28;20210;-81
2021/07/20 09:53:54;;;;;;;13.47;9.30;;;23.20;99.90;;;;;;5122156;28;20180;-81
2021/07/20 09:57:01;;;;;;;11.50;8.90;;;23.10;99.90;;;;;;5121606;28;20586;-81
2021/07/20 09:59:44;;;;;;;11.87;7.80;;;23.20;99.90;;;;;;5099789;28;20253;-81
2021/07/20 10:02:20;;;;;;;15.57;9.67;;;23.50;99.90;;;;;;5120608;28;20297;-81
2021/07/20 10:04:53;;;;;;;12.03;8.23;;;23.70;99.90;;;;;;5123216;28;20247;-81
2021/07/20 10:07:23;;;;;;;13.60;8.17;;;23.90;99.90;;;;;;5136901;28;20172;-80
2021/07/20 10:09:53;;;;;;;12.17;8.43;;;23.90;99.90;;;;;;5139768;28;20171;-80
2021/07/20 10:13:03;;;;;;;10.20;8.90;;;23.60;99.90;;;;;;5129863;28;20662;-81
2021/07/20 10:16:00;;;;;;;11.30;8.50;;;23.40;99.90;;;;;;5119439;28;20186;-81
2021/07/20 10:18:41;;;;;;;9.67;7.50;;;23.80;99.90;;;;;;5126683;28;20229;-81
2021/07/20 10:21:11;;;;;;;11.03;8.10;;;23.90;99.90;;;;;;5127485;28;20197;-81
2021/07/20 10:23:36;;;;;;;10.77;8.10;;;24.20;99.90;;;;;;5126506;28;20184;-82
2021/07/20 10:26:15;;;;;;;12.17;9.00;;;24.60;99.90;;;;;;5126780;28;20561;-81
2021/07/20 10:28:51;;;;;;;15.30;7.80;;;24.80;99.90;;;;;;5129756;28;20182;-81
2021/07/20 10:31:28;;;;;;;10.10;8.30;;;24.70;99.90;;;;;;5134990;28;20243;-81
2021/07/20 10:34:03;;;;;;;9.40;7.17;;;24.80;99.90;;;;;;5135428;28;20170;-81
2021/07/20 10:36:34;;;;;;;8.90;7.93;;;24.90;99.90;;;;;;5124819;28;20181;-81
2021/07/20 10:39:10;;;;;;;9.30;7.60;;;24.90;99.90;;;;;;5126184;28;20198;-81
2021/07/20 10:42:02;;;;;;;12.87;8.90;;;25.20;99.90;;;;;;5126827;28;20222;-81
2021/07/20 10:44:55;;;;;;;12.67;8.47;;;25.20;99.90;;;;;;5125677;28;20232;-82
2021/07/20 10:47:28;;;;;;;12.27;8.57;;;24.90;99.90;;;;;;5126367;28;20178;-81
2021/07/20 10:50:04;;;;;;;9.83;7.77;;;24.90;99.90;;;;;;5127092;28;20176;-82
2021/07/20 10:52:43;;;;;;;12.83;9.80;;;25.10;99.90;;;;;;5124753;28;20229;-83
2021/07/20 10:55:34;;;;;;;12.93;10.87;;;25.20;99.90;;;;;;5130471;28;20207;-82
2021/07/20 10:58:22;;;;;;;14.23;10.97;;;25.20;99.90;;;;;;5134476;28;20175;-81
2021/07/20 11:01:02;;;;;;;11.43;10.23;;;25.30;99.90;;;;;;5132519;28;20182;-81
2021/07/20 11:03:47;;;;;;;14.83;10.43;;;25.20;99.90;;;;;;5120569;28;20513;-82
2021/07/20 11:06:14;;;;;;;12.83;10.93;;;25.50;99.90;;;;;;5119342;28;20215;-81
2021/07/20 11:08:44;;;;;;;11.53;10.33;;;25.60;99.90;;;;;;5130430;28;20203;-82
2021/07/20 11:11:18;;;;;;;16.00;9.67;;;25.90;99.90;;;;;;5120071;28;20200;-81
2021/07/20 11:13:47;;;;;;;15.33;10.20;;;25.80;99.90;;;;;;5120966;28;20537;-81
2021/07/20 11:16:14;;;;;;;15.57;10.57;;;25.20;99.90;;;;;;5123682;28;20181;-82
2021/07/20 11:18:41;;;;;;;14.93;10.63;;;24.60;99.90;;;;;;5121458;28;20247;-81
2021/07/20 11:21:11;;;;;;;14.33;10.43;;;24.70;99.90;;;;;;5122747;28;20226;-81
2021/07/20 11:23:40;;;;;;;13.30;10.50;;;25.20;99.90;;;;;;5121040;28;20183;-81
2021/07/20 11:26:07;;;;;;;12.23;9.07;;;25.90;99.90;;;;;;5120801;28;20207;-81
2021/07/20 11:28:33;;;;;;;15.43;10.87;;;26.40;99.90;;;;;;5124681;28;20172;-81
2021/07/20 11:31:07;;;;;;;12.30;10.17;;;26.90;99.90;;;;;;5123700;28;20168;-81
2021/07/20 11:33:38;;;;;;;11.17;9.13;;;27.30;99.90;;;;;;5122638;28;20178;-81
2021/07/20 11:36:06;;;;;;;14.73;10.73;;;27.50;99.90;;;;;;5122344;28;20172;-81
2021/07/20 11:38:35;;;;;;;15.60;10.73;;;27.50;99.90;;;;;;5124019;28;20174;-83
2021/07/20 11:41:09;;;;;;;12.00;10.60;;;27.50;99.90;;;;;;5123546;28;20205;-81
2021/07/20 11:44:27;;;;;;;12.63;10.47;;;27.30;99.90;;;;;;5124279;28;20539;-82
2021/07/20 11:47:02;;;;;;;13.50;10.97;;;27.70;99.90;;;;;;5082044;28;20184;-82
2021/07/20 11:49:48;;;;;;;13.83;10.83;;;27.60;99.90;;;;;;5123930;28;20185;-81
2021/07/20 11:52:35;;;;;;;14.17;10.43;;;27.60;99.90;;;;;;5125323;28;20195;-81
2021/07/20 11:55:08;;;;;;;13.60;10.43;;;28.10;99.90;;;;;;5126678;28;20152;-82
2021/07/20 11:57:39;;;;;;;15.77;11.10;;;28.20;99.90;;;;;;5124784;28;20176;-82
2021/07/20 12:00:39;;;;;;;13.87;11.10;;;28.30;99.90;;;;;;5123936;28;20577;-82
2021/07/20 12:03:08;;;;;;;14.53;11.53;;;28.60;99.90;;;;;;5124177;28;20202;-82
2021/07/20 12:06:12;;;;;;;14.93;11.60;;;28.70;99.90;;;;;;5124498;28;20569;-81
2021/07/20 12:09:09;;;;;;;15.57;10.20;;;29.40;99.90;;;;;;5124490;28;20175;-82
2021/07/20 12:11:44;;;;;;;13.63;11.13;;;29.90;99.90;;;;;;5127809;28;20184;-82
2021/07/20 12:14:11;;;;;;;15.73;11.60;;;28.80;99.90;;;;;;5128023;28;20173;-82
2021/07/20 12:16:44;;;;;;;18.63;11.70;;;28.40;99.90;;;;;;5129289;28;20201;-82
2021/07/20 12:19:11;;;;;;;14.27;11.67;;;28.70;99.90;;;;;;5128090;28;20180;-82
2021/07/20 12:21:40;;;;;;;12.57;10.73;;;29.50;99.90;;;;;;5127558;28;20206;-82
2021/07/20 12:24:09;;;;;;;14.27;10.57;;;30.00;99.90;;;;;;5128856;28;20198;-82
2021/07/20 12:26:36;;;;;;;14.37;11.83;;;30.50;99.90;;;;;;5130518;28;20199;-82
2021/07/20 12:29:02;;;;;;;13.27;11.37;;;30.70;99.90;;;;;;5136443;28;20172;-82
2021/07/20 12:31:31;;;;;;;12.70;11.40;;;30.10;99.90;;;;;;5135834;28;20199;-82
2021/07/20 12:33:58;;;;;;;14.20;12.10;;;30.00;99.90;;;;;;5129248;27;20177;-82
2021/07/20 12:36:25;;;;;;;16.77;12.90;;;29.60;99.90;;;;;;5129514;28;20563;-82
2021/07/20 12:39:14;;;;;;;14.80;12.13;;;29.00;99.90;;;;;;5128966;28;20181;-82
2021/07/20 12:41:53;;;;;;;13.80;10.87;;;29.70;99.60;;;;;;5129515;28;20210;-82
2021/07/20 12:44:22;;;;;;;14.27;11.77;;;29.90;99.90;;;;;;5129393;28;20191;-82
2021/07/20 12:46:48;;;;;;;14.13;11.53;;;;;;;;;;5127852;28;20208;-82
2021/07/20 12:49:15;;;;;;;16.13;11.80;;;30.50;99.90;;;;;;5127720;28;20197;-82
2021/07/20 12:51:53;;;;;;;13.80;12.03;;;31.10;99.90;;;;;;5127938;28;20198;-82
2021/07/20 12:54:40;;;;;;;14.17;12.70;;;31.10;99.90;;;;;;5126870;28;20173;-82
2021/07/20 12:57:06;;;;;;;14.13;11.27;;;30.60;99.90;;;;;;5127293;28;20188;-82
2021/07/20 12:59:38;;;;;;;13.23;11.93;;;30.50;99.70;;;;;;5129165;28;20180;-82